Time;durP1;ratioP1;P1;durP2;ratioP2;P2;SDS_P1;SDS_P2;PMS_P1;PMS_P2;Temp;Humidity;BMP_temperature;BMP_pressure;BME280_temperature;BME280_humidity;BME280_pressure;Samples;Min_cycle;Max_cycle;Signal;HPM_P1;HPM_P2
2022/12/19 00:05:17;;;;;;;21.10;14.07;;;;;;;20.15;50.32;102637.69;20919599;28;20130;-78
2022/12/19 00:15:17;;;;;;;20.08;12.55;;;;;;;20.17;50.20;102656.03;20914506;28;20044;-79
2022/12/19 00:25:18;;;;;;;20.13;12.73;;;;;;;20.14;50.37;102651.75;20931049;28;20036;-78
2022/12/19 00:35:19;;;;;;;20.80;13.77;;;;;;;20.13;50.11;102647.41;20933333;28;21161;-79
2022/12/19 00:45:21;;;;;;;21.42;13.10;;;;;;;20.14;49.88;102641.25;20908230;28;20044;-79
2022/12/19 00:55:27;;;;;;;19.70;12.88;;;;;;;20.10;50.24;102650.16;20896638;28;20131;-78
2022/12/19 01:05:28;;;;;;;18.45;12.43;;;;;;;20.07;50.16;102631.00;20924064;28;20041;-79
2022/12/19 01:15:28;;;;;;;21.35;12.57;;;;;;;20.09;50.11;102631.78;20958619;28;20117;-78
2022/12/19 01:25:29;;;;;;;19.25;12.07;;;;;;;20.09;50.18;102626.53;20916634;28;20041;-78
2022/12/19 01:35:29;;;;;;;18.50;12.02;;;;;;;20.07;49.99;102607.34;20926860;28;20072;-79
2022/12/19 01:45:35;;;;;;;18.23;11.68;;;;;;;20.07;50.15;102594.19;20917076;28;21059;-78
2022/12/19 01:55:39;;;;;;;19.42;11.73;;;;;;;20.06;49.82;102574.91;20946317;28;20519;-79
2022/12/19 02:05:40;;;;;;;20.23;12.45;;;;;;;20.06;50.16;102574.91;20913106;28;20044;-80
2022/12/19 02:16:07;;;;;;;19.92;12.68;;;;;;;20.05;49.95;102572.34;20950424;28;20520;-80
2022/12/19 02:26:36;;;;;;;20.60;12.13;;;;;;;20.04;49.67;102579.34;20950918;28;20067;-80
2022/12/19 02:36:51;;;;;;;18.27;11.93;;;;;;;20.03;49.64;102593.44;20940296;28;20045;-78
2022/12/19 02:46:54;;;;;;;15.45;10.73;;;;;;;20.06;49.50;102598.56;20906174;28;20066;-77
2022/12/19 02:57:09;;;;;;;21.00;12.43;;;;;;;20.06;49.51;102605.63;20904217;28;20043;-78
2022/12/19 03:07:15;;;;;;;21.30;12.23;;;;;;;20.06;49.94;102593.31;20919670;28;20514;-78
2022/12/19 03:17:15;;;;;;;17.45;11.18;;;;;;;20.07;49.75;102587.16;20918406;28;20068;-78
2022/12/19 03:27:32;;;;;;;17.35;11.07;;;;;;;20.06;49.42;102568.81;20942896;28;20123;-78
2022/12/19 03:37:36;;;;;;;19.40;11.27;;;;;;;20.09;49.40;102553.78;20925774;28;20123;-78
2022/12/19 03:47:46;;;;;;;20.35;11.68;;;;;;;20.10;49.19;102551.97;20930779;28;20044;-78
2022/12/19 03:58:05;;;;;;;19.38;11.93;;;;;;;20.07;49.78;102570.53;20922838;28;20047;-78
2022/12/19 04:08:06;;;;;;;19.63;11.55;;;;;;;20.08;49.35;102566.94;20938738;28;20522;-79
2022/12/19 04:18:11;;;;;;;17.80;11.43;;;;;;;20.08;49.52;102564.31;20942288;28;20040;-78
2022/12/19 04:28:17;;;;;;;19.02;11.38;;;;;;;20.07;49.64;102570.53;20934193;28;20052;-78
2022/12/19 04:38:17;;;;;;;19.33;11.75;;;;;;;20.06;49.01;102563.53;20945279;28;20045;-80
2022/12/19 04:48:18;;;;;;;16.08;10.70;;;;;;;20.07;48.80;102570.53;20921645;28;20094;-78
2022/12/19 04:58:18;;;;;;;17.38;10.25;;;;;;;20.05;48.80;102578.44;20960869;28;20040;-78
2022/12/19 05:08:19;;;;;;;17.80;10.85;;;;;;;20.07;49.50;102571.38;20923938;28;20048;-76
2022/12/19 05:18:19;;;;;;;17.83;11.40;;;;;;;20.22;49.76;102574.34;20926713;28;20048;-76
2022/12/19 05:28:19;;;;;;;18.27;10.93;;;;;;;20.31;50.04;102563.44;20916108;28;20047;-74
2022/12/19 05:38:20;;;;;;;20.33;10.27;;;;;;;20.43;50.16;102547.19;20938667;28;20036;-83
2022/12/19 05:48:28;;;;;;;17.05;10.23;;;;;;;20.52;49.92;102567.00;20972378;28;20130;-84
2022/12/19 05:58:28;;;;;;;19.05;11.02;;;;;;;20.55;49.64;102558.97;20939492;28;20119;-75
2022/12/19 06:08:29;;;;;;;25.77;12.40;;;;;;;20.56;49.56;102560.69;20928308;28;20106;-80
2022/12/19 06:18:31;;;;;;;29.90;14.25;;;;;;;20.54;48.21;102567.78;20954916;28;20045;-84
2022/12/19 06:28:33;;;;;;;37.05;14.45;;;;;;;20.63;48.53;102577.09;20923576;28;20052;-86
2022/12/19 06:38:34;;;;;;;35.67;15.82;;;;;;;20.67;48.54;102583.13;21319608;23;20136;-82
2022/12/19 06:48:35;;;;;;;40.65;16.85;;;;;;;20.67;47.35;102594.50;20788079;28;20072;-84
2022/12/19 06:58:35;;;;;;;37.15;16.48;;;;;;;20.62;46.22;102589.41;20818583;28;20041;-86
2022/12/19 07:08:36;;;;;;;32.97;14.38;;;;;;;20.71;47.39;102595.22;20819942;28;20103;-83
2022/12/19 07:18:39;;;;;;;32.03;13.77;;;;;;;20.76;47.86;102612.59;20816847;28;20049;-82
2022/12/19 07:28:40;;;;;;;;;;;;;;;20.80;48.17;102594.88;20816292;28;20476;-83
2022/12/19 07:38:41;;;;;;;25.88;12.13;;;;;;;20.85;47.99;102602.56;20820070;28;19920;-84
2022/12/19 07:48:43;;;;;;;20.92;11.30;;;;;;;20.93;48.32;102588.19;20877151;28;20041;-85
2022/12/19 07:58:44;;;;;;;21.42;11.32;;;;;;;20.98;47.83;102595.03;20870250;28;20041;-85
2022/12/19 08:08:44;;;;;;;23.95;11.13;;;;;;;21.01;47.42;102602.84;20862295;28;20063;-83
2022/12/19 08:18:46;;;;;;;19.70;10.52;;;;;;;20.98;47.18;102634.56;20897288;28;20052;-84
2022/12/19 08:28:48;;;;;;;21.60;10.17;;;;;;;21.10;47.28;102631.41;20897281;28;20209;-81
2022/12/19 08:38:50;;;;;;;19.38;10.13;;;;;;;21.11;47.11;102606.78;20922489;28;20040;-81
2022/12/19 08:48:50;;;;;;;17.97;9.13;;;;;;;21.18;47.09;102604.72;20897730;28;20441;-82
2022/12/19 08:58:51;;;;;;;18.38;9.60;;;;;;;21.26;47.17;102590.34;20915035;28;20130;-83
2022/12/19 09:08:52;;;;;;;16.53;9.53;;;;;;;21.36;47.09;102588.16;20889165;28;20052;-81
2022/12/19 09:18:57;;;;;;;18.42;9.68;;;;;;;21.41;46.98;102583.53;20881255;28;20332;-81
2022/12/19 09:28:58;;;;;;;17.17;9.15;;;;;;;21.48;46.40;102604.34;20888219;28;20100;-84
2022/12/19 09:38:58;;;;;;;18.63;9.55;;;;;;;21.52;45.80;102603.28;20877329;28;20071;-82
2022/12/19 09:49:02;;;;;;;18.17;9.97;;;;;;;21.57;45.84;102569.72;20895968;28;20045;-81
2022/12/19 09:59:13;;;;;;;15.10;8.73;;;;;;;21.59;45.31;102566.09;20895700;28;20396;-83
2022/12/19 10:09:20;;;;;;;16.67;9.80;;;;;;;21.63;45.76;102547.47;20880232;28;20041;-84
2022/12/19 10:19:39;;;;;;;17.33;10.15;;;;;;;21.64;45.85;102539.53;20893536;28;20727;-81
2022/12/19 10:30:02;;;;;;;19.40;11.07;;;;;;;21.71;45.75;102538.28;20886481;28;20045;-81
2022/12/19 10:40:12;;;;;;;20.50;10.77;;;;;;;21.78;45.58;102530.13;20881516;28;20160;-82
2022/12/19 10:50:15;;;;;;;16.00;9.88;;;;;;;21.85;46.44;102519.22;20872053;28;20049;-80
2022/12/19 11:00:17;;;;;;;18.67;10.93;;;;;;;21.91;46.42;102515.44;20898533;28;20547;-82
2022/12/19 11:10:46;;;;;;;19.20;10.87;;;;;;;22.02;46.35;102499.09;20877024;28;20064;-83
2022/12/19 11:20:54;;;;;;;15.77;10.55;;;;;;;22.04;45.82;102500.72;20872799;28;20051;-83
2022/12/19 11:31:07;;;;;;;16.08;10.15;;;;;;;22.01;46.10;102481.56;20876950;28;20056;-83
2022/12/19 11:41:28;;;;;;;15.68;10.18;;;;;;;22.01;45.70;102476.28;20897429;28;20037;-83
2022/12/19 11:51:42;;;;;;;15.55;9.90;;;;;;;22.07;45.25;102455.72;20881210;28;20072;-84
2022/12/19 12:02:03;;;;;;;15.65;10.00;;;;;;;22.13;45.78;102445.81;20871360;28;20040;-82
2022/12/19 12:12:25;;;;;;;15.73;9.90;;;;;;;22.19;45.29;102430.53;20862423;28;20934;-84
2022/12/19 12:22:47;;;;;;;16.92;10.20;;;;;;;22.23;45.30;102420.69;20844467;28;20367;-84
2022/12/19 12:33:18;;;;;;;14.82;9.75;;;;;;;22.30;44.91;102422.09;20865980;28;20818;-84
2022/12/19 12:44:03;;;;;;;16.13;9.57;;;;;;;22.19;44.25;102420.00;20869315;28;20112;-85
2022/12/19 12:54:10;;;;;;;18.08;10.68;;;;;;;22.17;44.92;102416.56;20829125;28;20053;-85
2022/12/19 13:04:13;;;;;;;15.88;10.27;;;;;;;22.17;45.23;102402.53;20872656;28;20040;-84
2022/12/19 13:14:32;;;;;;;16.13;10.52;;;;;;;22.19;46.58;102420.00;20867486;28;20626;-84
2022/12/19 13:24:39;;;;;;;19.15;11.55;;;;;;;22.14;48.22;102390.34;20879620;28;20045;-84
2022/12/19 13:34:49;;;;;;;16.27;10.73;;;;;;;22.03;47.73;102393.50;20873962;28;20583;-86
2022/12/19 13:44:51;;;;;;;18.40;10.25;;;;;;;21.98;47.18;102374.41;20862427;28;20048;-84
2022/12/19 13:54:57;;;;;;;15.50;9.65;;;;;;;21.82;46.87;102373.47;20886710;28;20048;-86
2022/12/19 14:05:00;;;;;;;15.20;10.27;;;;;;;21.69;46.26;102375.81;20894098;28;20521;-86
2022/12/19 14:15:18;;;;;;;16.23;9.95;;;;;;;21.58;45.84;102373.69;20916386;28;20045;-86
2022/12/19 14:25:19;;;;;;;13.07;9.35;;;;;;;21.51;45.82;102372.28;20892507;28;20407;-86
2022/12/19 14:35:25;;;;;;;18.33;9.30;;;;;;;21.50;44.97;102370.56;20874366;28;20088;-85
2022/12/19 14:45:41;;;;;;;21.15;9.80;;;;;;;21.37;45.11;102378.19;20856585;28;20056;-86
2022/12/19 14:55:45;;;;;;;15.65;8.90;;;;;;;21.34;45.62;102375.69;20870585;28;20059;-83
2022/12/19 15:05:46;;;;;;;18.38;9.05;;;;;;;21.30;45.99;102379.38;20870434;28;20118;-84
2022/12/19 15:15:51;;;;;;;16.10;9.27;;;;;;;21.22;46.05;102391.13;20882987;28;20128;-85
2022/12/19 15:25:56;;;;;;;15.07;8.07;;;;;;;21.17;46.15;102405.47;20864783;28;20870;-84
2022/12/19 15:35:56;;;;;;;15.32;8.95;;;;;;;21.15;45.28;102383.59;20858907;28;20041;-85
2022/12/19 15:45:58;;;;;;;16.15;8.73;;;;;;;21.24;46.21;102391.91;20860975;28;20045;-82
2022/12/19 15:56:00;;;;;;;18.63;8.83;;;;;;;21.03;46.09;102380.59;20846279;28;20415;-80
2022/12/19 16:06:00;;;;;;;16.35;7.88;;;;;;;21.11;46.28;102383.72;20821476;28;20136;-80
2022/12/19 16:16:02;;;;;;;14.15;8.05;;;;;;;21.16;46.51;102370.34;20834595;28;20087;-80
2022/12/19 16:26:10;;;;;;;17.90;7.80;;;;;;;21.20;46.15;102360.50;20810032;28;20529;-79
2022/12/19 16:36:10;;;;;;;11.52;7.45;;;;;;;21.16;46.70;102354.53;20849739;28;20048;-79
2022/12/19 16:46:19;;;;;;;14.75;8.25;;;;;;;21.24;46.62;102341.03;20872072;28;20049;-78
2022/12/19 16:56:24;;;;;;;13.55;8.50;;;;;;;21.27;47.15;102335.59;20883022;28;20168;-80
2022/12/19 17:06:25;;;;;;;17.77;9.10;;;;;;;21.28;47.65;102340.78;20866312;28;20029;-79
2022/12/19 17:16:26;;;;;;;14.20;9.40;;;;;;;21.30;47.65;102350.41;20880692;28;20061;-79
2022/12/19 17:26:26;;;;;;;16.95;10.18;;;;;;;21.26;47.55;102347.91;20860254;28;20182;-80
2022/12/19 17:36:30;;;;;;;16.30;10.25;;;;;;;21.25;48.25;102358.50;20855595;28;20116;-82
2022/12/19 17:46:32;;;;;;;19.40;9.95;;;;;;;21.26;47.83;102368.13;20876416;28;20049;-81
2022/12/19 17:56:33;;;;;;;17.77;10.07;;;;;;;21.25;48.37;102367.28;20863152;28;20041;-85
2022/12/19 18:06:34;;;;;;;16.50;9.60;;;;;;;21.19;48.33;102361.44;20839695;28;20115;-83
2022/12/19 18:16:36;;;;;;;18.88;10.27;;;;;;;21.13;48.24;102357.31;20864028;28;20128;-85
2022/12/19 18:26:36;;;;;;;18.52;9.50;;;;;;;21.20;48.64;102358.75;20853682;28;20491;-84
2022/12/19 18:36:41;;;;;;;19.17;10.63;;;;;;;21.16;48.82;102362.44;20854692;28;20056;-85
2022/12/19 18:46:42;;;;;;;19.75;10.25;;;;;;;21.21;49.79;102327.97;20855001;28;20052;-86
2022/12/19 18:56:43;;;;;;;25.83;10.15;;;;;;;21.15;49.87;102305.41;20836314;28;20053;-84
2022/12/19 19:06:44;;;;;;;19.40;8.73;;;;;;;21.11;49.99;102306.47;20838505;28;20049;-84
2022/12/19 19:16:45;;;;;;;18.02;9.77;;;;;;;21.11;49.97;102285.41;20825427;28;20076;-83
2022/12/19 19:26:48;;;;;;;15.00;9.43;;;;;;;21.10;49.76;102281.94;20852589;28;22021;-84
2022/12/19 19:36:52;;;;;;;;;;;;;;;21.11;49.76;102286.25;20832258;28;20041;-86
2022/12/19 19:46:53;;;;;;;14.55;8.93;;;;;;;21.05;49.87;102276.00;20871409;28;19928;-88
2022/12/19 19:56:53;;;;;;;18.05;9.65;;;;;;;21.02;49.81;102270.03;20851496;28;20037;-84
2022/12/19 20:06:54;;;;;;;13.85;8.80;;;;;;;21.00;49.06;102264.00;20821603;28;20052;-84
2022/12/19 20:16:55;;;;;;;15.88;8.90;;;;;;;20.93;49.20;102281.84;20847137;28;20037;-89
2022/12/19 20:26:57;;;;;;;17.23;9.27;;;;;;;20.87;49.42;102282.13;20891463;28;20033;-92
2022/12/19 20:36:58;;;;;;;14.30;9.18;;;;;;;20.91;49.05;102281.91;20895812;28;20140;-90
2022/12/19 20:46:59;;;;;;;18.67;11.02;;;;;;;20.79;47.84;102267.53;20832525;28;20046;-82
2022/12/19 20:56:59;;;;;;;18.52;10.48;;;;;;;20.84;48.25;102274.38;20859296;28;20041;-82
2022/12/19 21:07:00;;;;;;;16.67;9.98;;;;;;;20.83;48.57;102272.69;20879027;28;20041;-82
2022/12/19 21:17:00;;;;;;;17.25;9.98;;;;;;;20.78;49.05;102268.44;20874395;28;20060;-83
2022/12/19 21:27:01;;;;;;;17.35;9.40;;;;;;;20.79;48.72;102270.16;20888090;28;20371;-83
2022/12/19 21:37:01;;;;;;;15.60;9.10;;;;;;;20.77;49.09;102272.00;20869513;28;20063;-84
2022/12/19 21:47:02;;;;;;;16.42;8.73;;;;;;;20.73;48.90;102243.28;20878520;28;20041;-84
2022/12/19 21:57:03;;;;;;;14.52;8.85;;;;;;;20.71;49.30;102240.66;20870307;28;20056;-83
2022/12/19 22:07:04;;;;;;;13.35;8.48;;;;;;;20.69;49.04;102263.59;20887158;28;20282;-84
2022/12/19 22:17:05;;;;;;;16.77;9.13;;;;;;;20.66;49.42;102257.63;20884189;28;20045;-83
2022/12/19 22:27:06;;;;;;;18.10;9.15;;;;;;;20.65;49.23;102235.69;20863556;28;20431;-84
2022/12/19 22:37:06;;;;;;;16.38;8.88;;;;;;;20.64;49.10;102218.19;20883752;28;20064;-83
2022/12/19 22:47:06;;;;;;;15.52;8.43;;;;;;;20.64;49.36;102197.13;20885686;28;20036;-84
2022/12/19 22:57:07;;;;;;;15.00;9.05;;;;;;;20.60;49.19;102180.66;20878685;28;20128;-84
2022/12/19 23:07:08;;;;;;;14.38;8.35;;;;;;;20.60;49.19;102150.81;20884096;28;20365;-83
2022/12/19 23:17:08;;;;;;;13.60;8.48;;;;;;;20.59;49.25;102163.16;20843763;28;20688;-83
2022/12/19 23:27:10;;;;;;;12.88;8.13;;;;;;;20.60;48.89;102161.34;20877081;28;20130;-83
2022/12/19 23:37:10;;;;;;;12.98;7.90;;;;;;;20.58;49.50;102160.56;20876340;28;20739;-83
2022/12/19 23:47:11;;;;;;;14.73;8.25;;;;;;;20.60;48.77;102150.81;20850083;28;20060;-83
2022/12/19 23:57:11;;;;;;;13.70;8.35;;;;;;;20.56;49.50;102146.63;20881735;28;20052;-84
